ヌーク の空港の天気 - METARとTAF

ヌーク空港 ( BGGH / GOH ) - グリーンランド ヌーク
飛行場実況気象(Metar)
観測時間01/19 22:50 WGT (01/20 01:50 UTC)
風向・風速西南西 5m/s
視程-
天気現象弱いしゅう雪
全天の8割程度の雲 雲底高度 270m
気温-8℃
湿度93%
気圧996hPa
METARBGGH 200150Z AUTO 24009KT 9999NDV -SHSN BKN009/// M08/M09 Q0996
過去の天気等 Google飛行場航空写真 Wunderground天気予報

過去48時間のMETAR

飛行場予報(TAF)
発表時間: 1/19 14:01 WGT (1/19 17:01 UTC)
予報対象時間: 19日15時 WGT ~ 19日21時 WGT
風向・風速北 4m/s
視程10km以上
全天の4割程度の雲 雲底高度 180m
全天の4割程度の塔状積雲 雲底高度 610m
全天の8割程度の雲 雲底高度 1520m
19日15時 WGT ~ 19日21時 WGT に一時的に
視程1200m
天気現象しゅう雪 低い地吹雪 高い地吹雪
全天を覆う雲 鉛直視程 120m
19日16時 WGT ~ 19日18時 WGT に徐々に
風向・風速西南西 11m/s 瞬間風速 16m/s
TAF BGGH 191701Z 1918/1924 36008KT 9999 SCT006 SCT020TCU BKN050
TEMPO 1918/1924 1200 SHSN DRSN BLSN VV004
BECMG 1919/1921 24022G32KT